Historyczne dane pomiarowe

Dodano dane terminowe – wersja testowa.

Dane z okresu 1951-2019

Wersja bazy: 1.34 [2019-03-16, lista zmian], aktualizacja planowana na 2019-04-15

Dane meteo z obszaru Polski uzyskane na podstawie danych udostępnionych przez Instytut Meteorologii i Gospodarki Wodnej – Państwowy Instytut Badawczy.

 

Wybierz Datę:    

       

TemperaturaWilgotnośćWiatrCiśnienieOpadyŚniegCzas trwania zjawisk
 Stacja t tx tn tng RH VA  wxwx mslp ppp RRR   cm mm wxwxwxwxwxwxwx
1987-08-14 13.7 16.9 9.5- 88.0- 8.0 1.3---- 1.0------------
1987-08-13 14.3 20.7 6.9- 71.3- 2.0 1.0---- 0.0------------
1987-08-12 12.8 18.5 6.9- 77.8- 4.7 2.7---- 0.0------------
1987-08-11 12.5 16.2 10.9- 84.5- 5.3 3.0---- 4.5------------
1987-08-10 14.1 20.3 12.2- 91.5- 8.0 3.0---- 1.0------------
1987-08-09 17.6 23.5 10.9- 69.8- 4.7 2.0---- 4.8------------
1987-08-08 14.8 21.9 7.9- 74.0- 3.7 3.3---- 0.0------------
1987-08-07 12.2 19.7 6.4- 76.5- 2.0 1.7---- 0.0------------
1987-08-06 11.5 14.3 8.2- 82.3- 7.0 6.3---- 0.0------------
1987-08-05 12.1 17.1 7.9- 84.0- 4.7 4.3---- 0.0------------
1987-08-04 14.1 17.4 11.7- 81.0- 4.7 4.3---- 4.5------------
1987-08-03 14.3 18.9 9.3- 76.3- 5.0 2.0---- 2.7------------
1987-08-02 13.5 16.9 10.1- 86.0- 6.0 2.3---- 1.0------------
1987-08-01 15.0 18.1 13.4- 93.3- 7.3 3.7---- 9.6------------
1987-07-31 15.9 21.9 12.4- 88.3- 7.0 1.3---- 2.1------------
1987-07-30 18.1 24.4 10.5- 73.3- 5.3 1.3---- 0.2------------
1987-07-29 14.3 19.4 10.4- 82.0- 6.3 2.0---- 0.0------------
1987-07-28 13.2 15.7 11.9- 88.0- 7.7 5.0---- 0.8------------
1987-07-27 12.6 17.4 8.5- 75.5- 7.3 6.3---- 7.2------------
1987-07-26 13.5 17.4 10.9- 76.5- 5.0 1.7---- 0.0------------
1987-07-25 16.7 20.9 14.9- 82.5- 5.3 3.0---- 0.0------------
1987-07-24 20.1 24.4 14.6- 76.3- 1.3 2.0---- 0.0------------
1987-07-23 20.9 25.9 13.7- 82.0- 4.0 0.7---- 0.0------------
1987-07-22 18.7 23.1 15.5- 86.5- 4.7 1.0---- 0.0------------
1987-07-21 19.5 24.9 12.6- 77.8- 3.7 0.0---- 36.1------------
1987-07-20 17.9 21.9 14.1- 86.8- 3.7 2.0---- 0.0------------
1987-07-19 18.6 23.4 15.8- 93.0- 7.0 2.0---- 14.2------------
1987-07-18 21.5 26.7 16.5- 85.5- 5.3 2.3---- 0.0------------
1987-07-17 20.9 29.9 15.5- 80.3- 2.7 4.7---- 26.4------------
1987-07-16 18.7 26.0 10.9- 70.3- 4.0 1.7---- 0.0------------
1987-07-15 17.4 23.4 9.1- 69.0- 0.0 3.7---- 0.0------------
1987-07-14 15.7 21.2 8.9- 78.8- 1.3 1.3---- 0.0------------
1987-07-13 15.4 19.4 11.9- 77.0- 4.3 2.3---- 0.0------------
1987-07-12 18.8 24.9 14.2- 86.3- 3.7 1.3---- 2.2------------
1987-07-11 16.5 21.4 9.4- 83.5- 6.3 3.7---- 1.3------------
1987-07-10 13.9 17.9 8.7- 74.0- 4.0 3.3---- 0.0------------
1987-07-09 15.8 18.9 12.9- 90.8- 5.7 1.7---- 0.5------------
1987-07-08 21.0 28.4 14.9- 73.3- 4.3 2.3---- 26.8------------
1987-07-07 21.2 28.1 10.9- 60.0- 0.3 0.7---- 0.0------------
1987-07-06 18.7 24.9 8.9- 66.5- 0.0 0.0---- 0.0------------
1987-07-05 16.0 21.1 9.9- 73.3- 1.0 2.0---- 0.0------------
1987-07-04 17.7 22.4 11.1- 74.3- 4.0 2.0---- 0.0------------
1987-07-03 18.2 22.6 11.7- 71.5- 1.0 1.3---- 0.0------------
1987-07-02 18.7 22.5 14.3- 75.5- 2.7 0.3---- 0.0------------
1987-07-01 23.5 30.7 18.0- 84.0- 3.3 3.0---- 9.3------------
1987-06-30 25.0 30.4 18.2- 74.3- 0.0 2.0---- 0.0------------
1987-06-29 20.8 25.9 13.7- 85.5- 4.0 1.0---- 0.0------------
1987-06-28 18.1 22.4 14.4- 84.5- 5.7 3.0---- 0.0------------
1987-06-27 17.5 21.9 14.9- 81.3- 4.0 1.7---- 0.0------------
1987-06-26 17.3 22.9 10.7- 72.3- 3.0 1.3---- 0.0------------
1987-06-25 13.6 17.1 10.4- 85.8- 7.0 1.7---- 0.0------------
1987-06-24 14.6 19.1 10.9- 83.8- 5.0 3.0---- 18.9------------
1987-06-23 15.8 20.4 10.9- 79.0- 5.0 0.7---- 0.7------------
1987-06-22 14.6 16.7 13.4- 89.5- 7.7 1.3---- 0.0------------
1987-06-21 16.2 23.4 9.4- 76.8- 4.7 1.7---- 2.2------------
1987-06-20 16.1 21.4 9.1- 67.0- 4.0 2.7---- 0.0------------
1987-06-19 13.0 17.9 7.9- 71.5- 4.0 2.0---- 0.0------------
1987-06-18 10.9 14.3 7.4- 79.3- 2.7 3.7---- 0.8------------
1987-06-17 11.6 14.6 9.4- 72.3- 4.0 3.7---- 0.0------------
1987-06-16 11.2 24.3 9.4- 90.5- 8.0 5.7---- 1.9------------
524.7 ms

 

Źródłem pochodzenia danych jest Instytut Meteorologii i Gospodarki Wodnej – Państwowy Instytut Badawczy. Dane Instytutu Meteorologii i Gospodarki Wodnej – Państwowego Instytutu Badawczego zostały przetworzone.

Dane źródłowe można odnaleźć na stronie https://dane.imgw.pl